createdAt,value
2022-11-26T00:00:31.321Z,6.50
2022-11-26T00:02:59.514Z,6.40
2022-11-26T00:05:32.612Z,6.50
2022-11-26T00:08:02.880Z,6.40
2022-11-26T00:10:36.812Z,6.40
2022-11-26T00:13:07.167Z,6.30
2022-11-26T00:15:35.325Z,6.30
2022-11-26T00:18:03.482Z,6.30
2022-11-26T00:20:32.455Z,6.20
2022-11-26T00:23:04.446Z,6.20
2022-11-26T00:25:40.800Z,6.30
2022-11-26T00:28:33.803Z,6.30
2022-11-26T00:31:04.003Z,6.20
2022-11-26T00:33:32.904Z,6.20
2022-11-26T00:36:07.274Z,6.20
2022-11-26T00:38:36.731Z,6.30
2022-11-26T00:41:04.937Z,6.20
2022-11-26T00:43:33.134Z,6.20
2022-11-26T00:46:01.236Z,6.20
2022-11-26T00:48:29.319Z,6.20
2022-11-26T00:50:57.426Z,6.20
2022-11-26T00:53:27.753Z,6.20
2022-11-26T00:55:57.412Z,6.20
2022-11-26T00:58:27.451Z,6.20
2022-11-26T01:00:57.154Z,6.20
2022-11-26T01:03:26.234Z,6.30
2022-11-26T01:05:56.661Z,6.30
2022-11-26T01:08:31.132Z,6.30
2022-11-26T01:11:01.002Z,6.20
2022-11-26T01:13:29.885Z,6.20
2022-11-26T01:15:59.406Z,6.20
2022-11-26T01:18:28.106Z,6.20
2022-11-26T01:20:56.229Z,6.20
2022-11-26T01:23:24.309Z,6.20
2022-11-26T01:25:52.500Z,6.10
2022-11-26T01:28:21.932Z,6.20
2022-11-26T01:30:50.047Z,6.20
2022-11-26T01:33:18.288Z,6.10
2022-11-26T01:35:46.457Z,6.20
2022-11-26T01:38:16.072Z,6.20
2022-11-26T01:40:57.601Z,6.10
2022-11-26T01:43:29.378Z,6.10
2022-11-26T01:45:57.831Z,6.10
2022-11-26T01:48:29.241Z,6.10
2022-11-26T01:51:05.862Z,6.00
2022-11-26T01:53:45.856Z,5.90
2022-11-26T01:56:19.990Z,5.90
2022-11-26T01:58:52.525Z,5.90
2022-11-26T02:01:21.384Z,5.80
2022-11-26T02:03:59.624Z,5.80
2022-11-26T02:06:33.013Z,5.80
2022-11-26T02:09:03.667Z,5.80
2022-11-26T02:11:32.516Z,5.70
2022-11-26T02:14:05.755Z,5.60
2022-11-26T02:16:52.919Z,5.50
2022-11-26T02:19:49.139Z,5.50
2022-11-26T02:22:38.446Z,5.50
2022-11-26T02:25:15.185Z,5.60
2022-11-26T02:28:08.164Z,5.50
2022-11-26T02:30:40.032Z,5.60
2022-11-26T02:33:12.776Z,5.70
2022-11-26T02:35:46.226Z,5.70
2022-11-26T02:38:19.717Z,5.70
2022-11-26T02:40:47.992Z,5.80
2022-11-26T02:43:17.197Z,5.80
2022-11-26T02:45:49.319Z,5.80
2022-11-26T02:48:22.469Z,5.80
2022-11-26T02:50:54.746Z,5.80
2022-11-26T02:53:24.964Z,5.80
2022-11-26T02:56:00.039Z,5.80
2022-11-26T02:58:28.412Z,5.80
2022-11-26T03:01:00.287Z,5.90
2022-11-26T03:03:33.382Z,5.90
2022-11-26T03:06:06.026Z,5.90
2022-11-26T03:08:34.785Z,5.90
2022-11-26T03:11:02.948Z,5.90
2022-11-26T03:13:31.168Z,5.90
2022-11-26T03:16:00.744Z,5.90
2022-11-26T03:18:29.002Z,5.90
2022-11-26T03:20:57.364Z,5.90
2022-11-26T03:23:25.550Z,5.80
2022-11-26T03:25:53.687Z,5.90
2022-11-26T03:28:21.881Z,5.90
2022-11-26T03:30:50.955Z,5.90
2022-11-26T03:33:21.297Z,5.90
2022-11-26T03:35:50.703Z,5.90
2022-11-26T03:38:19.269Z,5.90
2022-11-26T03:40:47.338Z,6.00
2022-11-26T03:43:15.415Z,5.90
2022-11-26T03:45:43.558Z,6.00
2022-11-26T03:48:11.746Z,6.00
2022-11-26T03:50:41.217Z,5.90
2022-11-26T03:53:10.738Z,6.00
2022-11-26T03:55:39.014Z,6.00
2022-11-26T03:58:07.122Z,5.90
2022-11-26T04:00:35.204Z,5.90
2022-11-26T04:03:03.504Z,5.90
2022-11-26T04:05:31.993Z,6.00
2022-11-26T04:08:01.654Z,6.00
2022-11-26T04:10:30.895Z,6.00
2022-11-26T04:12:59.124Z,5.90
2022-11-26T04:15:27.527Z,6.00
2022-11-26T04:17:55.626Z,5.90
2022-11-26T04:20:23.888Z,5.90
2022-11-26T04:22:52.017Z,5.90
2022-11-26T04:25:21.512Z,5.90
2022-11-26T04:27:49.715Z,5.90
2022-11-26T04:30:17.901Z,5.90
2022-11-26T04:32:46.242Z,5.90
2022-11-26T04:35:14.660Z,5.90
2022-11-26T04:37:42.804Z,5.90
2022-11-26T04:40:12.290Z,5.90
2022-11-26T04:42:41.811Z,5.90
2022-11-26T04:45:11.378Z,5.90
2022-11-26T04:47:42.894Z,5.90
2022-11-26T04:50:12.321Z,5.80
2022-11-26T04:52:40.466Z,5.80
2022-11-26T04:55:09.207Z,5.80
2022-11-26T04:57:37.610Z,5.80
2022-11-26T05:00:09.258Z,5.80
2022-11-26T05:02:37.418Z,5.70
2022-11-26T05:05:06.186Z,5.70
2022-11-26T05:07:35.173Z,5.70
2022-11-26T05:10:03.302Z,5.70
2022-11-26T05:12:31.466Z,5.70
2022-11-26T05:14:59.570Z,5.70
2022-11-26T05:17:28.975Z,5.70
2022-11-26T05:19:57.005Z,5.70
2022-11-26T05:22:25.649Z,5.70
2022-11-26T05:24:53.783Z,5.60
2022-11-26T05:27:21.982Z,5.60
2022-11-26T05:29:50.055Z,5.60
2022-11-26T05:32:18.218Z,5.50
2022-11-26T05:34:47.679Z,5.60
2022-11-26T05:37:15.751Z,5.50
2022-11-26T05:39:43.969Z,5.50
2022-11-26T05:42:12.336Z,5.50
2022-11-26T05:44:40.685Z,5.50
2022-11-26T05:47:09.099Z,5.50
2022-11-26T05:49:37.320Z,5.50
2022-11-26T05:52:06.896Z,5.50
2022-11-26T05:54:34.922Z,5.50
2022-11-26T05:57:03.053Z,5.40
2022-11-26T05:59:31.422Z,5.40
2022-11-26T06:01:59.778Z,5.30
2022-11-26T06:04:27.935Z,5.40
2022-11-26T06:06:57.388Z,5.30
2022-11-26T06:09:26.722Z,5.30
2022-11-26T06:11:54.932Z,5.30
2022-11-26T06:14:23.282Z,5.30
2022-11-26T06:16:51.428Z,5.20
2022-11-26T06:19:19.641Z,5.20
2022-11-26T06:21:47.744Z,5.30
2022-11-26T06:24:15.910Z,5.20
2022-11-26T06:26:45.660Z,5.20
2022-11-26T06:29:13.799Z,5.20
2022-11-26T06:31:42.108Z,5.20
2022-11-26T06:34:10.273Z,5.20
2022-11-26T06:36:38.427Z,5.10
2022-11-26T06:39:06.672Z,5.20
2022-11-26T06:41:34.842Z,5.20
2022-11-26T06:44:04.851Z,5.10
2022-11-26T06:46:35.285Z,5.10
2022-11-26T06:49:04.246Z,5.10
2022-11-26T06:51:33.394Z,5.10
2022-11-26T06:54:01.876Z,5.10
2022-11-26T06:56:30.066Z,5.10
2022-11-26T06:58:58.176Z,5.10
2022-11-26T07:01:28.206Z,5.10
2022-11-26T07:03:56.620Z,5.10
2022-11-26T07:06:25.947Z,5.10
2022-11-26T07:08:55.950Z,5.10
2022-11-26T07:11:25.183Z,5.10
2022-11-26T07:13:53.507Z,5.10
2022-11-26T07:16:21.890Z,5.10
2022-11-26T07:18:57.769Z,5.20
2022-11-26T07:21:30.199Z,5.10
2022-11-26T07:23:59.276Z,5.10
2022-11-26T07:26:27.441Z,5.10
2022-11-26T07:28:56.913Z,5.20
2022-11-26T07:31:25.548Z,5.20
2022-11-26T07:33:55.234Z,5.30
2022-11-26T07:36:25.899Z,5.30
2022-11-26T07:38:55.113Z,5.40
2022-11-26T07:41:23.737Z,5.40
2022-11-26T07:43:52.474Z,5.40
2022-11-26T07:46:23.333Z,5.50
2022-11-26T07:48:52.060Z,5.40
2022-11-26T07:51:23.504Z,5.40
2022-11-26T07:53:52.318Z,5.50
2022-11-26T07:56:20.807Z,5.50
2022-11-26T07:58:49.442Z,5.60
2022-11-26T08:01:19.850Z,5.60
2022-11-26T08:03:49.372Z,5.60
2022-11-26T08:06:19.100Z,5.70
2022-11-26T08:08:49.159Z,5.70
2022-11-26T08:11:19.607Z,5.70
2022-11-26T08:13:48.651Z,5.80
2022-11-26T08:16:17.231Z,5.80
2022-11-26T08:18:45.461Z,5.90
2022-11-26T08:21:13.707Z,5.90
2022-11-26T08:23:41.926Z,6.00
2022-11-26T08:26:23.896Z,6.00
2022-11-26T08:28:56.660Z,6.10
2022-11-26T08:31:27.811Z,6.20
2022-11-26T08:33:58.991Z,6.20
2022-11-26T08:36:27.832Z,6.30
2022-11-26T08:38:56.272Z,6.40
2022-11-26T08:41:25.855Z,6.40
2022-11-26T08:44:09.364Z,6.50
2022-11-26T08:46:38.285Z,6.50
2022-11-26T08:49:08.172Z,6.60
2022-11-26T08:51:36.406Z,6.60
2022-11-26T08:54:04.768Z,6.70
2022-11-26T08:56:35.776Z,6.70
2022-11-26T08:59:04.199Z,6.70
2022-11-26T09:01:34.227Z,6.70
2022-11-26T09:04:06.914Z,6.80
2022-11-26T09:06:37.747Z,6.90
2022-11-26T09:09:17.616Z,6.90
2022-11-26T09:11:49.677Z,7.00
2022-11-26T09:14:20.495Z,7.00
2022-11-26T09:16:48.960Z,7.10
2022-11-26T09:19:17.561Z,7.10
2022-11-26T09:21:46.119Z,7.20
2022-11-26T09:24:15.128Z,7.20
2022-11-26T09:26:43.824Z,7.30
2022-11-26T09:29:15.702Z,7.40
2022-11-26T09:32:07.404Z,7.40
2022-11-26T09:34:33.328Z,7.40
2022-11-26T09:37:01.544Z,7.50
2022-11-26T09:39:30.342Z,7.60
2022-11-26T09:42:04.162Z,7.60
2022-11-26T09:44:47.409Z,7.70
2022-11-26T09:47:22.403Z,7.70
2022-11-26T09:50:01.856Z,7.70
2022-11-26T09:52:35.752Z,7.80
2022-11-26T09:55:20.662Z,7.90
2022-11-26T09:57:58.492Z,8.00
2022-11-26T10:00:30.573Z,8.00
2022-11-26T10:02:59.525Z,8.00
2022-11-26T10:05:40.629Z,8.20
2022-11-26T10:08:19.082Z,8.20
2022-11-26T10:10:57.037Z,8.30
2022-11-26T10:13:34.370Z,8.30
2022-11-26T10:16:11.464Z,8.40
2022-11-26T10:18:47.725Z,8.40
2022-11-26T10:21:32.583Z,8.50
2022-11-26T10:24:18.936Z,8.60
2022-11-26T10:26:48.466Z,8.60
2022-11-26T10:29:23.860Z,8.70
2022-11-26T10:31:58.453Z,8.80
2022-11-26T10:34:37.438Z,8.90
2022-11-26T10:37:07.349Z,9.00
2022-11-26T10:39:35.705Z,9.00
2022-11-26T10:42:08.016Z,9.20
2022-11-26T10:44:40.928Z,9.30
2022-11-26T10:47:26.466Z,9.40
2022-11-26T10:49:56.419Z,9.40
2022-11-26T10:52:33.481Z,9.50
2022-11-26T10:55:27.468Z,9.60
2022-11-26T10:58:02.546Z,9.70
2022-11-26T11:00:36.039Z,9.80
2022-11-26T11:03:07.856Z,9.80
2022-11-26T11:05:36.230Z,9.80
2022-11-26T11:08:04.768Z,9.80
2022-11-26T11:10:32.936Z,9.90
2022-11-26T11:13:11.937Z,10.00
2022-11-26T11:15:41.263Z,10.10
2022-11-26T11:18:19.579Z,10.20
2022-11-26T11:20:55.723Z,10.20
2022-11-26T11:23:40.079Z,10.30
2022-11-26T11:26:18.615Z,10.60
2022-11-26T11:28:49.593Z,10.80
2022-11-26T11:31:21.044Z,10.90
2022-11-26T11:33:51.707Z,10.90
2022-11-26T11:36:27.217Z,10.90
2022-11-26T11:38:56.701Z,10.90
2022-11-26T11:41:33.326Z,10.90
2022-11-26T11:44:06.692Z,10.80
2022-11-26T11:47:01.389Z,10.80
2022-11-26T11:49:45.183Z,10.80
2022-11-26T11:52:20.923Z,10.90
2022-11-26T11:54:56.984Z,10.90
2022-11-26T11:57:41.730Z,11.00
2022-11-26T12:00:14.404Z,11.00
2022-11-26T12:03:01.862Z,11.10
2022-11-26T12:05:56.157Z,11.20
2022-11-26T12:08:34.223Z,11.40
2022-11-26T12:11:18.263Z,11.60
2022-11-26T12:13:55.884Z,11.80
2022-11-26T12:16:27.736Z,11.80
2022-11-26T12:19:01.807Z,11.70
2022-11-26T12:21:39.146Z,11.70
2022-11-26T12:24:13.823Z,11.60
2022-11-26T12:26:47.236Z,11.60
2022-11-26T12:29:21.021Z,11.50
2022-11-26T12:31:53.926Z,11.40
2022-11-26T12:34:29.205Z,11.40
2022-11-26T12:37:02.649Z,11.30
2022-11-26T12:39:39.502Z,11.30
2022-11-26T12:42:16.479Z,11.30
2022-11-26T12:44:49.391Z,11.30
2022-11-26T12:47:25.314Z,11.30
2022-11-26T12:50:06.504Z,11.30
2022-11-26T12:52:42.286Z,11.30
2022-11-26T12:55:17.241Z,11.30
2022-11-26T12:57:50.132Z,11.30
2022-11-26T13:00:26.128Z,11.30
2022-11-26T13:02:56.032Z,11.30
2022-11-26T13:05:31.019Z,11.30
2022-11-26T13:08:21.232Z,11.30
2022-11-26T13:11:09.866Z,11.30
2022-11-26T13:13:48.603Z,11.30
2022-11-26T13:16:24.870Z,11.30
2022-11-26T13:18:57.029Z,11.30
2022-11-26T13:21:45.097Z,11.40
2022-11-26T13:24:30.703Z,11.40
2022-11-26T13:27:19.306Z,11.50
2022-11-26T13:30:15.139Z,11.60
2022-11-26T13:33:21.779Z,11.60
2022-11-26T13:36:10.409Z,11.70
2022-11-26T13:38:54.131Z,11.70
2022-11-26T13:41:36.342Z,11.70
2022-11-26T13:44:40.498Z,11.80
2022-11-26T13:47:13.785Z,11.70
2022-11-26T13:49:47.869Z,11.70
2022-11-26T13:52:20.067Z,11.70
2022-11-26T13:54:52.913Z,11.60
2022-11-26T13:57:25.927Z,11.60
2022-11-26T13:59:56.561Z,11.60
2022-11-26T14:02:44.491Z,11.50
2022-11-26T14:05:15.167Z,11.50
2022-11-26T14:07:44.392Z,11.50
2022-11-26T14:10:41.343Z,11.40
2022-11-26T14:13:16.298Z,11.40
2022-11-26T14:16:02.717Z,11.30
2022-11-26T14:19:00.774Z,11.30
2022-11-26T14:21:31.159Z,11.30
2022-11-26T14:24:01.116Z,11.20
2022-11-26T14:26:31.806Z,11.20
2022-11-26T14:29:12.492Z,11.20
2022-11-26T14:31:43.871Z,11.10
2022-11-26T14:34:15.700Z,11.10
2022-11-26T14:36:55.818Z,11.10
2022-11-26T14:39:24.071Z,11.10
2022-11-26T14:41:53.815Z,11.00
2022-11-26T14:44:25.336Z,10.90
2022-11-26T14:46:56.559Z,10.90
2022-11-26T14:49:35.531Z,10.90
2022-11-26T14:52:06.371Z,10.90
2022-11-26T14:54:36.202Z,10.90
2022-11-26T14:57:08.444Z,10.90
2022-11-26T14:59:38.047Z,10.80
2022-11-26T15:02:22.766Z,10.80
2022-11-26T15:04:59.699Z,10.80
2022-11-26T15:07:30.124Z,10.80
2022-11-26T15:10:03.338Z,10.80
2022-11-26T15:12:32.627Z,10.80
2022-11-26T15:15:04.200Z,10.70
2022-11-26T15:17:34.338Z,10.70
2022-11-26T15:20:07.275Z,10.70
2022-11-26T15:22:39.150Z,10.70
2022-11-26T15:25:17.008Z,10.60
2022-11-26T15:27:58.977Z,10.60
2022-11-26T15:30:30.889Z,10.50
2022-11-26T15:33:01.158Z,10.50
2022-11-26T15:35:29.679Z,10.40
2022-11-26T15:37:58.363Z,10.40
2022-11-26T15:40:31.500Z,10.30
2022-11-26T15:43:03.314Z,10.30
2022-11-26T15:45:39.887Z,10.30
2022-11-26T15:48:27.644Z,10.20
2022-11-26T15:51:01.256Z,10.20
2022-11-26T15:53:33.385Z,10.10
2022-11-26T15:56:02.936Z,10.10
2022-11-26T15:58:34.118Z,10.00
2022-11-26T16:01:06.699Z,10.00
2022-11-26T16:03:45.264Z,10.00
2022-11-26T16:06:29.931Z,10.00
2022-11-26T16:09:02.538Z,10.00
2022-11-26T16:11:33.957Z,10.00
2022-11-26T16:14:23.660Z,10.00
2022-11-26T16:16:53.839Z,10.00
2022-11-26T16:19:23.003Z,10.00
2022-11-26T16:21:52.782Z,9.90
2022-11-26T16:24:29.745Z,9.90
2022-11-26T16:27:00.779Z,9.90
2022-11-26T16:29:30.710Z,9.90
2022-11-26T16:32:00.640Z,9.90
2022-11-26T16:34:29.485Z,9.90
2022-11-26T16:37:20.046Z,9.90
2022-11-26T16:39:48.676Z,9.80
2022-11-26T16:42:18.389Z,9.70
2022-11-26T16:44:46.600Z,9.70
2022-11-26T16:47:23.406Z,9.70
2022-11-26T16:49:51.715Z,9.70
2022-11-26T16:52:20.997Z,9.70
2022-11-26T16:54:49.860Z,9.70
2022-11-26T16:57:21.324Z,9.50
2022-11-26T16:59:52.777Z,9.50
2022-11-26T17:02:24.318Z,9.50
2022-11-26T17:04:52.749Z,9.50
2022-11-26T17:07:23.642Z,9.40
2022-11-26T17:09:51.988Z,9.50
2022-11-26T17:12:21.690Z,9.50
2022-11-26T17:14:50.170Z,9.50
2022-11-26T17:17:23.774Z,9.50
2022-11-26T17:19:54.558Z,9.50
2022-11-26T17:22:22.603Z,9.50
2022-11-26T17:24:50.761Z,9.50
2022-11-26T17:27:20.979Z,9.60
2022-11-26T17:29:49.740Z,9.50
2022-11-26T17:32:19.848Z,9.60
2022-11-26T17:34:48.210Z,9.50
2022-11-26T17:37:21.150Z,9.60
2022-11-26T17:39:49.455Z,9.60
2022-11-26T17:42:19.719Z,9.60
2022-11-26T17:44:48.195Z,9.60
2022-11-26T17:47:18.203Z,9.60
2022-11-26T17:49:47.276Z,9.50
2022-11-26T17:52:17.681Z,9.50
2022-11-26T17:54:46.799Z,9.40
2022-11-26T17:57:16.584Z,9.30
2022-11-26T17:59:45.531Z,9.30
2022-11-26T18:02:13.643Z,9.30
2022-11-26T18:04:41.705Z,9.30
2022-11-26T18:07:14.219Z,9.30
2022-11-26T18:09:43.626Z,9.30
2022-11-26T18:12:23.179Z,9.30
2022-11-26T18:14:53.565Z,9.30
2022-11-26T18:17:22.241Z,9.20
2022-11-26T18:19:51.146Z,9.20
2022-11-26T18:22:21.075Z,9.20
2022-11-26T18:24:56.558Z,9.20
2022-11-26T18:27:26.810Z,9.20
2022-11-26T18:29:54.959Z,9.20
2022-11-26T18:32:23.011Z,9.10
2022-11-26T18:34:51.093Z,9.10
2022-11-26T18:37:19.543Z,9.10
2022-11-26T18:39:47.766Z,9.00
2022-11-26T18:45:06.419Z,9.00
2022-11-26T18:47:34.707Z,9.10
2022-11-26T18:50:02.842Z,9.00
2022-11-26T18:52:30.931Z,9.00
2022-11-26T18:54:59.932Z,9.00
2022-11-26T18:57:29.400Z,9.10
2022-11-26T18:59:57.500Z,9.10
2022-11-26T19:02:25.831Z,9.10
2022-11-26T19:04:54.466Z,9.00
2022-11-26T19:07:23.222Z,9.00
2022-11-26T19:09:53.848Z,9.10
2022-11-26T19:12:22.072Z,9.00
2022-11-26T19:14:51.687Z,9.00
2022-11-26T19:17:19.811Z,9.00
2022-11-26T19:19:48.195Z,9.00
2022-11-26T19:22:16.324Z,9.00
2022-11-26T19:24:44.471Z,9.00
2022-11-26T19:27:14.372Z,8.90
2022-11-26T19:29:42.648Z,8.90
2022-11-26T19:32:12.335Z,8.90
2022-11-26T19:34:40.877Z,8.90
2022-11-26T19:37:09.196Z,8.90
2022-11-26T19:39:37.859Z,8.90
2022-11-26T19:42:06.314Z,8.90
2022-11-26T19:44:35.711Z,8.90
2022-11-26T19:47:04.779Z,8.80
2022-11-26T19:49:35.591Z,8.80
2022-11-26T19:52:03.801Z,8.90
2022-11-26T19:54:31.964Z,8.90
2022-11-26T19:57:00.167Z,8.80
2022-11-26T19:59:28.286Z,8.80
2022-11-26T20:01:56.538Z,8.80
2022-11-26T20:04:27.557Z,8.80
2022-11-26T20:06:58.341Z,8.80
2022-11-26T20:09:26.481Z,8.80
2022-11-26T20:11:54.645Z,8.80
2022-11-26T20:14:22.926Z,8.90
2022-11-26T20:16:52.516Z,8.80
2022-11-26T20:19:22.187Z,8.90
2022-11-26T20:21:50.840Z,8.80
2022-11-26T20:24:20.531Z,8.90
2022-11-26T20:26:50.863Z,8.90
2022-11-26T20:29:20.067Z,8.90
2022-11-26T20:31:50.100Z,8.90
2022-11-26T20:34:21.149Z,9.00
2022-11-26T20:36:50.162Z,8.90
2022-11-26T20:39:21.682Z,8.90
2022-11-26T20:41:50.194Z,8.90
2022-11-26T20:44:18.397Z,8.90
2022-11-26T20:46:46.567Z,8.90
2022-11-26T20:49:16.126Z,8.90
2022-11-26T20:51:44.324Z,8.90
2022-11-26T20:54:12.493Z,8.90
2022-11-26T20:56:42.126Z,8.90
2022-11-26T20:59:10.191Z,8.90
2022-11-26T21:01:41.469Z,8.80
2022-11-26T21:04:09.833Z,8.80
2022-11-26T21:06:38.040Z,8.80
2022-11-26T21:09:07.335Z,8.70
2022-11-26T21:11:36.512Z,8.70
2022-11-26T21:14:08.484Z,8.60
2022-11-26T21:16:39.110Z,8.60
2022-11-26T21:19:07.315Z,8.50
2022-11-26T21:21:35.453Z,8.50
2022-11-26T21:24:04.691Z,8.50
2022-11-26T21:26:33.438Z,8.50
2022-11-26T21:29:02.716Z,8.40
2022-11-26T21:31:32.835Z,8.40
2022-11-26T21:34:02.263Z,8.40
2022-11-26T21:36:31.978Z,8.30
2022-11-26T21:39:00.251Z,8.30
2022-11-26T21:41:28.726Z,8.30
2022-11-26T21:43:56.793Z,8.30
2022-11-26T21:46:27.545Z,8.20
2022-11-26T21:48:58.128Z,8.20
2022-11-26T21:51:28.079Z,8.10
2022-11-26T21:53:57.740Z,8.10
2022-11-26T21:56:27.845Z,8.10
2022-11-26T21:58:57.912Z,8.00
2022-11-26T22:01:28.927Z,8.00
2022-11-26T22:04:00.663Z,8.00
2022-11-26T22:06:29.093Z,8.00
2022-11-26T22:08:57.464Z,8.00
2022-11-26T22:11:27.342Z,7.90
2022-11-26T22:13:55.781Z,7.90
2022-11-26T22:16:25.584Z,7.90
2022-11-26T22:18:54.589Z,7.90
2022-11-26T22:21:26.359Z,7.90
2022-11-26T22:23:54.672Z,7.90
2022-11-26T22:26:23.172Z,7.80
2022-11-26T22:28:52.511Z,7.80
2022-11-26T22:31:22.266Z,7.80
2022-11-26T22:33:51.558Z,7.80
2022-11-26T22:36:19.636Z,7.80
2022-11-26T22:38:49.051Z,7.80
2022-11-26T22:41:17.408Z,7.80
2022-11-26T22:43:45.815Z,7.80
2022-11-26T22:46:15.670Z,7.80
2022-11-26T22:48:44.675Z,7.70
2022-11-26T22:51:13.481Z,7.70
2022-11-26T22:53:41.493Z,7.80
2022-11-26T22:56:11.235Z,7.80
2022-11-26T22:58:39.285Z,7.80
2022-11-26T23:01:09.525Z,7.70
2022-11-26T23:03:39.043Z,7.70
2022-11-26T23:06:09.020Z,7.70
2022-11-26T23:08:38.207Z,7.70
2022-11-26T23:11:07.860Z,7.70
2022-11-26T23:13:37.749Z,7.70
2022-11-26T23:16:08.694Z,7.70
2022-11-26T23:18:37.553Z,7.70
2022-11-26T23:21:08.131Z,7.70
2022-11-26T23:23:37.047Z,7.70
2022-11-26T23:26:05.704Z,7.70
2022-11-26T23:28:35.258Z,7.70
2022-11-26T23:31:06.073Z,7.70
2022-11-26T23:33:35.322Z,7.70
2022-11-26T23:36:03.557Z,7.70
2022-11-26T23:38:31.645Z,7.70
2022-11-26T23:41:01.468Z,7.70
2022-11-26T23:43:30.995Z,7.70
2022-11-26T23:46:04.618Z,7.70
2022-11-26T23:48:33.233Z,7.70
2022-11-26T23:51:02.076Z,7.70
2022-11-26T23:53:30.234Z,7.70
2022-11-26T23:56:02.981Z,7.70
2022-11-26T23:58:31.384Z,7.70
